Weather observations for the past three days for
Arlington Municipal Airport
Metric (Imperial)
Date Time (pdt) Wind (kph) Vis. (km) Weather Sky Cond. Temperature (ºC) Relative Humidity Wind Chill (°C) Heat Index (°C) Pressure Precipitation (cm)
Air Dwpt 6 hour altimeter (cm) sea level (mb) 1 hr 3 hr 6 hr
Max. Min.
04 18:56 NW 13 16.09 Fair CLR 21.7 10.6 49% 75.72 1009.9
04 17:56 NW 17 16.09 Fair CLR 24.4 12.2 47% 26 75.69 1009.7
04 16:56 W 7 16.09 Fair CLR 26.1 10 26.7 21.7 36% 26 75.72 1009.8
04 15:56 S 9 16.09 Fair CLR 25.6 10.6 39% 26 75.72 1010.0
04 14:56 W 9 16.09 Fair CLR 26.1 9.4 35% 26 75.74 1010.4
04 13:56 S 11 16.09 Fair CLR 25 11.1 42% 26 75.79 1010.8
04 12:56 Vrbl 6 16.09 Fair CLR 23.3 10.6 45% 75.79 1011.1
04 11:56 S 9 16.09 Fair CLR 23.3 11.7 48% 75.82 1011.2
04 10:56 Vrbl 7 16.09 Fair CLR 22.2 11.1 22.2 8.9 50% 75.82 1011.3
04 09:56 Calm 16.09 Fair CLR 20 11.1 57% 75.82 1011.3
04 08:56 Calm 16.09 Fair CLR 17.2 11.7 70% 75.82 1011.3
04 07:56 Calm 16.09 Fair CLR 13.9 11.7 87% 75.82 1011.2
04 06:56 Calm 16.09 Fair CLR 10 10 100% 75.77 1010.7
04 05:56 Calm 16.09 Fair CLR 8.9 8.9 100% 75.74 1010.3
04 04:56 Calm 16.09 Fair CLR 9.4 9.4 13.9 8.9 100% 75.74 1010.3
04 03:56 Calm 16.09 Fair CLR 9.4 8.9 97% 75.74 1010.3
04 02:56 N 6 16.09 Fair CLR 10 8.9 93% 75.74 1010.4
04 01:56 N 6 16.09 Fair CLR 10 9.4 96% 75.74 1010.2
04 00:56 N 6 16.09 Fair CLR 11.7 9.4 86% 75.74 1010.4
03 23:56 Calm 16.09 Fair CLR 12.2 9.4 83% 75.74 1010.1
03 22:56 Calm 16.09 Fair CLR 13.9 8.9 25 13.9 72% 75.74 1010.1
03 21:56 Calm 16.09 Fair CLR 16.1 8.9 63% 75.74 1010.2
03 20:56 W 6 16.09 Fair CLR 18.3 7.8 51% 75.72 1009.9
03 19:56 NW 13 16.09 Fair CLR 20.6 8.3 45% 75.72 1009.8
03 18:56 NW 17 16.09 Fair CLR 22.8 8.9 41% 75.72 1010.0
03 17:56 NW 17 16.09 Fair CLR 23.9 9.4 40% 25 75.74 1010.4
03 16:56 NW 17 16.09 Fair CLR 25 12.2 25.6 20.6 45% 26 75.79 1010.9
03 15:56 NW 17 16.09 Fair CLR 25.6 11.7 42% 26 75.82 1011.4
03 14:56 NW 15 16.09 Fair CLR 24.4 12.2 47% 26 75.9 1012.3
03 13:56 NW 22 16.09 Fair CLR 24.4 13.3 50% 26 75.95 1012.9
03 12:56 Vrbl 6 16.09 Fair CLR 23.3 12.8 52% 75.97 1013.3
03 11:56 NW 13 16.09 Fair CLR 21.1 11.7 55% 76.02 1014.1
03 10:56 W 13 16.09 Fair CLR 21.1 12.8 21.1 7.2 59% 76.07 1014.7
03 09:56 NW 9 16.09 Fair CLR 18.9 12.8 68% 76.1 1015.0
03 08:56 NW 11 16.09 Fair CLR 16.1 12.2 78% 76.12 1015.3
03 07:56 NW 9 16.09 Fair CLR 13.3 11.1 87% 76.15 1015.5
03 06:56 NW 6 16.09 Fair CLR 10 0 0% 76.12 1015.5
03 05:56 N 6 11.27 Fair CLR 9 0 0% 76.12 1015.3
03 04:56 Calm 16.09 Fair CLR 8.3 8.3 15.6 8.3 100% 76.12 1015.5
03 03:56 Calm 16.09 Fair CLR 9.4 9.4 100% 76.15 1015.5
03 02:56 Calm 16.09 Fair CLR 10 10 100% 76.12 1015.3
03 01:56 Calm 16.09 Fair CLR 10.6 10 96% 76.12 1015.5
03 00:56 N 6 16.09 Fair CLR 11.1 10 93% 76.12 1015.6
02 23:56 NE 6 16.09 Fair CLR 11.7 9.4 86% 76.12 1015.4
02 22:56 Calm 16.09 Fair CLR 15.6 8.3 22.2 14.4 62% 76.1 1015.1
02 21:56 NW 11 16.09 Fair CLR 14.4 8.9 70% 76.07 1014.8
02 20:56 NW 19 16.09 Fair CLR 17.2 9.4 60% 76.02 1014.1
02 19:56 NW 19 16.09 Fair CLR 18.9 9.4 54% 76 1013.5
02 18:56 NW 20 16.09 Fair CLR 20.6 8.9 47% 76 1013.5
02 17:56 NW 22 16.09 NULL NULL 21.7 8.3 42% 76.02 1014.0
02 16:56 NW 24 16.09 Fair CLR 22.2 10.6 22.8 17.2 48% 76.02 1014.2
02 15:56 W 22 16.09 Fair CLR 22.2 11.1 50% 76.1 1015.0
02 14:56 NW 22 G 30 16.09 Fair CLR 22.2 13.9 59% 76.12 1015.5
02 13:56 W 19 16.09 Fair CLR 21.7 13.9 61% 76.17 1016.1
02 12:56 W 24 16.09 Fair CLR 20 13.9 68% 76.23 1016.5
02 11:56 NW 17 16.09 Fair CLR 18.9 13.9 73% 76.28 1017.2
02 10:56 W 9 16.09 Fair CLR 17.8 12.8 17.8 8.3 73% 76.3 1017.7
02 09:56 NW 19 16.09 Fair CLR 15 12.8 87% 76.3 1017.8
02 08:56 Vrbl 6 16.09 A Few Clouds FEW120 12.8 11.7 93% 76.33 1018.0
02 07:56 SW 7 16.09 A Few Clouds FEW120 11.1 10.6 97% 76.3 1018.0
02 06:56 N 13 11.27 Mostly Cloudy BKN110 9.4 9.4 100% 8 76.3 1017.9
02 05:56 Calm 16.09 Light Rain BKN110 8.9 8.9 100% 76.33 1018.2
02 04:56 Calm 12.87 A Few Clouds FEW110 8.9 8.9 12.2 8.3 100% 76.3 1017.8
02 03:56 N 7 16.09 Fair CLR 8.3 8.3 100% 7 76.28 1017.4
02 02:56 Calm 16.09 A Few Clouds FEW120 10 9.4 96% 76.3 1017.8
02 01:56 Calm 16.09 Fair CLR 10.6 10 96% 76.3 1017.7
02 00:56 Calm 16.09 Partly Cloudy SCT110 10 8.9 93% 76.3 1017.7
01 23:56 N 7 16.09 Fair CLR 11.1 8.9 86% 76.28 1017.2
01 22:56 Calm 16.09 Partly Cloudy SCT110 12.2 9.4 19.4 11.7 83% 76.25 1017.0
01 21:56 W 9 16.09 A Few Clouds FEW110 12.8 8.9 77% 76.2 1016.5
01 20:56 W 6 16.09 Mostly Cloudy BKN110 13.9 8.3 69% 76.2 1016.5
01 19:56 NW 15 16.09 Mostly Cloudy BKN110 14.4 8.3 67% 76.15 1015.8
Date Time (pdt) Wind (kph) Vis. (km) Weather Sky Cond. Air Dwpt Max. Min. Relative Humidity Wind Chill (°C) Heat Index (°C) altimeter (cm) sea level (mb) 1 hr 3 hr 6 hr
6 hour
Temperature (ºC) Pressure Precipitation (cm)